sensor_id;sensor_type;location;lat;lon;timestamp;P1;durP1;ratioP1;P2;durP2;ratioP2
43345;SDS011;28937;51.160;4.146;2023-04-25T00:02:24;12.10;;;3.67;;
43345;SDS011;28937;51.160;4.146;2023-04-25T00:04:50;15.45;;;4.07;;
43345;SDS011;28937;51.160;4.146;2023-04-25T00:07:16;14.25;;;3.67;;
43345;SDS011;28937;51.160;4.146;2023-04-25T00:09:42;17.50;;;4.32;;
43345;SDS011;28937;51.160;4.146;2023-04-25T00:12:10;16.63;;;4.13;;
43345;SDS011;28937;51.160;4.146;2023-04-25T00:14:35;17.45;;;4.38;;
43345;SDS011;28937;51.160;4.146;2023-04-25T00:17:01;14.77;;;4.10;;
43345;SDS011;28937;51.160;4.146;2023-04-25T00:19:27;10.70;;;3.67;;
43345;SDS011;28937;51.160;4.146;2023-04-25T00:21:54;16.02;;;4.22;;
43345;SDS011;28937;51.160;4.146;2023-04-25T00:24:20;12.00;;;4.40;;
43345;SDS011;28937;51.160;4.146;2023-04-25T00:26:45;13.15;;;4.18;;
43345;SDS011;28937;51.160;4.146;2023-04-25T00:29:11;13.07;;;3.80;;
43345;SDS011;28937;51.160;4.146;2023-04-25T00:31:37;10.50;;;4.13;;
43345;SDS011;28937;51.160;4.146;2023-04-25T00:34:02;15.73;;;4.40;;
43345;SDS011;28937;51.160;4.146;2023-04-25T00:36:28;15.48;;;4.20;;
43345;SDS011;28937;51.160;4.146;2023-04-25T00:38:53;10.88;;;3.72;;
43345;SDS011;28937;51.160;4.146;2023-04-25T00:41:22;13.65;;;4.50;;
43345;SDS011;28937;51.160;4.146;2023-04-25T00:43:48;17.50;;;4.78;;
43345;SDS011;28937;51.160;4.146;2023-04-25T00:46:14;16.40;;;5.22;;
43345;SDS011;28937;51.160;4.146;2023-04-25T00:48:40;13.90;;;4.30;;
43345;SDS011;28937;51.160;4.146;2023-04-25T00:51:06;17.08;;;4.22;;
43345;SDS011;28937;51.160;4.146;2023-04-25T00:53:31;13.25;;;4.70;;
43345;SDS011;28937;51.160;4.146;2023-04-25T00:55:57;15.80;;;3.95;;
43345;SDS011;28937;51.160;4.146;2023-04-25T00:58:23;12.48;;;3.83;;
43345;SDS011;28937;51.160;4.146;2023-04-25T01:00:50;11.75;;;3.45;;
43345;SDS011;28937;51.160;4.146;2023-04-25T01:03:17;13.98;;;3.78;;
43345;SDS011;28937;51.160;4.146;2023-04-25T01:05:44;12.85;;;4.20;;
43345;SDS011;28937;51.160;4.146;2023-04-25T01:08:10;15.82;;;4.25;;
43345;SDS011;28937;51.160;4.146;2023-04-25T01:10:36;10.45;;;3.67;;
43345;SDS011;28937;51.160;4.146;2023-04-25T01:13:02;13.25;;;3.67;;
43345;SDS011;28937;51.160;4.146;2023-04-25T01:15:28;13.18;;;3.58;;
43345;SDS011;28937;51.160;4.146;2023-04-25T01:17:54;14.05;;;4.38;;
43345;SDS011;28937;51.160;4.146;2023-04-25T01:20:20;18.08;;;4.32;;
43345;SDS011;28937;51.160;4.146;2023-04-25T01:22:47;14.98;;;4.22;;
43345;SDS011;28937;51.160;4.146;2023-04-25T01:25:14;11.45;;;3.88;;
43345;SDS011;28937;51.160;4.146;2023-04-25T01:27:40;13.45;;;3.60;;
43345;SDS011;28937;51.160;4.146;2023-04-25T01:30:06;12.50;;;3.85;;
43345;SDS011;28937;51.160;4.146;2023-04-25T01:32:32;14.55;;;3.63;;
43345;SDS011;28937;51.160;4.146;2023-04-25T01:35:05;15.90;;;4.40;;
43345;SDS011;28937;51.160;4.146;2023-04-25T01:37:43;12.65;;;3.95;;
43345;SDS011;28937;51.160;4.146;2023-04-25T01:40:10;11.88;;;3.95;;
43345;SDS011;28937;51.160;4.146;2023-04-25T01:42:38;15.65;;;4.35;;
43345;SDS011;28937;51.160;4.146;2023-04-25T01:45:05;14.68;;;3.83;;
43345;SDS011;28937;51.160;4.146;2023-04-25T01:47:32;15.48;;;4.32;;
43345;SDS011;28937;51.160;4.146;2023-04-25T01:49:59;14.85;;;4.30;;
43345;SDS011;28937;51.160;4.146;2023-04-25T01:52:26;12.68;;;3.90;;
43345;SDS011;28937;51.160;4.146;2023-04-25T01:54:51;14.40;;;3.88;;
43345;SDS011;28937;51.160;4.146;2023-04-25T01:57:18;21.00;;;4.22;;
43345;SDS011;28937;51.160;4.146;2023-04-25T01:59:44;12.60;;;3.33;;
43345;SDS011;28937;51.160;4.146;2023-04-25T02:02:10;12.05;;;3.38;;
43345;SDS011;28937;51.160;4.146;2023-04-25T02:04:36;12.38;;;3.90;;
43345;SDS011;28937;51.160;4.146;2023-04-25T02:07:01;13.38;;;3.63;;
43345;SDS011;28937;51.160;4.146;2023-04-25T02:09:28;13.35;;;3.90;;
43345;SDS011;28937;51.160;4.146;2023-04-25T02:11:54;13.30;;;4.18;;
43345;SDS011;28937;51.160;4.146;2023-04-25T02:14:20;18.23;;;4.03;;
43345;SDS011;28937;51.160;4.146;2023-04-25T02:16:45;13.43;;;3.50;;
43345;SDS011;28937;51.160;4.146;2023-04-25T02:19:11;17.25;;;3.60;;
43345;SDS011;28937;51.160;4.146;2023-04-25T02:21:37;12.45;;;3.55;;
43345;SDS011;28937;51.160;4.146;2023-04-25T02:24:03;8.30;;;3.70;;
43345;SDS011;28937;51.160;4.146;2023-04-25T02:26:29;11.38;;;3.78;;
43345;SDS011;28937;51.160;4.146;2023-04-25T02:28:56;17.98;;;4.38;;
43345;SDS011;28937;51.160;4.146;2023-04-25T02:31:22;11.88;;;3.65;;
43345;SDS011;28937;51.160;4.146;2023-04-25T02:33:47;15.18;;;4.07;;
43345;SDS011;28937;51.160;4.146;2023-04-25T02:36:13;14.55;;;3.65;;
43345;SDS011;28937;51.160;4.146;2023-04-25T02:38:38;12.88;;;4.30;;
43345;SDS011;28937;51.160;4.146;2023-04-25T02:41:04;14.38;;;4.07;;
43345;SDS011;28937;51.160;4.146;2023-04-25T02:43:30;10.85;;;3.40;;
43345;SDS011;28937;51.160;4.146;2023-04-25T02:45:56;10.98;;;3.45;;
43345;SDS011;28937;51.160;4.146;2023-04-25T02:48:21;13.18;;;3.75;;
43345;SDS011;28937;51.160;4.146;2023-04-25T02:50:47;17.20;;;3.97;;
43345;SDS011;28937;51.160;4.146;2023-04-25T02:53:12;13.13;;;3.47;;
43345;SDS011;28937;51.160;4.146;2023-04-25T02:55:38;13.73;;;3.47;;
43345;SDS011;28937;51.160;4.146;2023-04-25T02:58:04;15.05;;;3.50;;
43345;SDS011;28937;51.160;4.146;2023-04-25T03:00:30;11.93;;;3.78;;
43345;SDS011;28937;51.160;4.146;2023-04-25T03:02:56;15.90;;;4.03;;
43345;SDS011;28937;51.160;4.146;2023-04-25T03:05:21;12.45;;;3.50;;
43345;SDS011;28937;51.160;4.146;2023-04-25T03:07:47;13.57;;;3.50;;
43345;SDS011;28937;51.160;4.146;2023-04-25T03:10:12;13.95;;;3.85;;
43345;SDS011;28937;51.160;4.146;2023-04-25T03:12:38;15.18;;;4.13;;
43345;SDS011;28937;51.160;4.146;2023-04-25T03:15:04;16.17;;;4.28;;
43345;SDS011;28937;51.160;4.146;2023-04-25T03:17:30;17.10;;;4.03;;
43345;SDS011;28937;51.160;4.146;2023-04-25T03:19:56;19.50;;;4.50;;
43345;SDS011;28937;51.160;4.146;2023-04-25T03:22:22;11.77;;;3.63;;
43345;SDS011;28937;51.160;4.146;2023-04-25T03:24:49;13.30;;;3.97;;
43345;SDS011;28937;51.160;4.146;2023-04-25T03:27:15;10.93;;;3.63;;
43345;SDS011;28937;51.160;4.146;2023-04-25T03:29:41;11.38;;;3.97;;
43345;SDS011;28937;51.160;4.146;2023-04-25T03:32:06;13.90;;;3.55;;
43345;SDS011;28937;51.160;4.146;2023-04-25T03:34:32;12.77;;;3.70;;
43345;SDS011;28937;51.160;4.146;2023-04-25T03:36:57;11.55;;;2.60;;
43345;SDS011;28937;51.160;4.146;2023-04-25T03:39:23;10.77;;;2.95;;
43345;SDS011;28937;51.160;4.146;2023-04-25T03:41:49;11.85;;;3.47;;
43345;SDS011;28937;51.160;4.146;2023-04-25T03:44:14;11.02;;;2.60;;
43345;SDS011;28937;51.160;4.146;2023-04-25T03:46:40;10.75;;;2.50;;
43345;SDS011;28937;51.160;4.146;2023-04-25T03:49:05;7.97;;;2.85;;
43345;SDS011;28937;51.160;4.146;2023-04-25T03:51:31;10.40;;;3.00;;
43345;SDS011;28937;51.160;4.146;2023-04-25T03:53:57;10.30;;;2.65;;
43345;SDS011;28937;51.160;4.146;2023-04-25T03:56:22;11.38;;;2.50;;
43345;SDS011;28937;51.160;4.146;2023-04-25T03:58:48;9.82;;;2.53;;
43345;SDS011;28937;51.160;4.146;2023-04-25T04:01:14;7.63;;;2.30;;
43345;SDS011;28937;51.160;4.146;2023-04-25T04:03:39;9.10;;;2.28;;
43345;SDS011;28937;51.160;4.146;2023-04-25T04:06:05;11.20;;;2.92;;
43345;SDS011;28937;51.160;4.146;2023-04-25T04:08:32;11.10;;;2.78;;
43345;SDS011;28937;51.160;4.146;2023-04-25T04:10:58;9.02;;;2.88;;
43345;SDS011;28937;51.160;4.146;2023-04-25T04:13:27;6.32;;;2.22;;
43345;SDS011;28937;51.160;4.146;2023-04-25T04:15:54;11.27;;;2.58;;
43345;SDS011;28937;51.160;4.146;2023-04-25T04:18:20;7.38;;;2.33;;
43345;SDS011;28937;51.160;4.146;2023-04-25T04:20:46;10.63;;;2.63;;
43345;SDS011;28937;51.160;4.146;2023-04-25T04:23:12;12.35;;;3.15;;
43345;SDS011;28937;51.160;4.146;2023-04-25T04:25:38;13.55;;;3.00;;
43345;SDS011;28937;51.160;4.146;2023-04-25T04:28:05;7.82;;;2.40;;
43345;SDS011;28937;51.160;4.146;2023-04-25T04:30:31;6.85;;;2.63;;
43345;SDS011;28937;51.160;4.146;2023-04-25T04:32:58;8.55;;;2.42;;
43345;SDS011;28937;51.160;4.146;2023-04-25T04:35:25;7.53;;;2.75;;
43345;SDS011;28937;51.160;4.146;2023-04-25T04:37:51;11.25;;;2.90;;
43345;SDS011;28937;51.160;4.146;2023-04-25T04:40:17;12.88;;;2.88;;
43345;SDS011;28937;51.160;4.146;2023-04-25T04:42:43;8.32;;;3.28;;
43345;SDS011;28937;51.160;4.146;2023-04-25T04:45:13;6.63;;;2.33;;
43345;SDS011;28937;51.160;4.146;2023-04-25T04:47:39;11.20;;;2.78;;
43345;SDS011;28937;51.160;4.146;2023-04-25T04:50:08;10.98;;;2.70;;
43345;SDS011;28937;51.160;4.146;2023-04-25T04:52:35;8.32;;;3.00;;
43345;SDS011;28937;51.160;4.146;2023-04-25T04:55:02;8.85;;;2.50;;
43345;SDS011;28937;51.160;4.146;2023-04-25T04:57:28;10.02;;;2.80;;
43345;SDS011;28937;51.160;4.146;2023-04-25T04:59:54;13.10;;;3.00;;
43345;SDS011;28937;51.160;4.146;2023-04-25T05:02:20;7.35;;;2.65;;
43345;SDS011;28937;51.160;4.146;2023-04-25T05:04:46;11.63;;;3.15;;
43345;SDS011;28937;51.160;4.146;2023-04-25T05:07:11;12.00;;;3.33;;
43345;SDS011;28937;51.160;4.146;2023-04-25T05:09:37;10.45;;;2.88;;
43345;SDS011;28937;51.160;4.146;2023-04-25T05:12:03;7.75;;;3.00;;
43345;SDS011;28937;51.160;4.146;2023-04-25T05:14:29;11.32;;;3.38;;
43345;SDS011;28937;51.160;4.146;2023-04-25T05:16:55;10.93;;;3.78;;
43345;SDS011;28937;51.160;4.146;2023-04-25T05:19:21;11.68;;;3.22;;
43345;SDS011;28937;51.160;4.146;2023-04-25T05:21:46;10.27;;;3.60;;
43345;SDS011;28937;51.160;4.146;2023-04-25T05:24:12;9.43;;;2.80;;
43345;SDS011;28937;51.160;4.146;2023-04-25T05:26:38;15.70;;;4.05;;
43345;SDS011;28937;51.160;4.146;2023-04-25T05:29:03;11.77;;;3.03;;
43345;SDS011;28937;51.160;4.146;2023-04-25T05:31:30;10.95;;;2.67;;
43345;SDS011;28937;51.160;4.146;2023-04-25T05:33:56;9.25;;;2.80;;
43345;SDS011;28937;51.160;4.146;2023-04-25T05:36:22;14.52;;;3.33;;
43345;SDS011;28937;51.160;4.146;2023-04-25T05:38:48;10.82;;;2.90;;
43345;SDS011;28937;51.160;4.146;2023-04-25T05:41:14;8.98;;;2.97;;
43345;SDS011;28937;51.160;4.146;2023-04-25T05:43:39;9.52;;;3.25;;
43345;SDS011;28937;51.160;4.146;2023-04-25T05:46:10;14.95;;;3.63;;
43345;SDS011;28937;51.160;4.146;2023-04-25T05:48:36;11.88;;;2.67;;
43345;SDS011;28937;51.160;4.146;2023-04-25T05:51:02;12.10;;;3.17;;
43345;SDS011;28937;51.160;4.146;2023-04-25T05:53:28;12.30;;;2.55;;
43345;SDS011;28937;51.160;4.146;2023-04-25T05:55:53;11.02;;;3.05;;
43345;SDS011;28937;51.160;4.146;2023-04-25T05:58:19;11.73;;;2.70;;
43345;SDS011;28937;51.160;4.146;2023-04-25T06:00:45;11.15;;;2.90;;
43345;SDS011;28937;51.160;4.146;2023-04-25T06:03:11;11.25;;;3.35;;
43345;SDS011;28937;51.160;4.146;2023-04-25T06:05:39;8.30;;;2.78;;
43345;SDS011;28937;51.160;4.146;2023-04-25T06:08:06;10.77;;;3.15;;
43345;SDS011;28937;51.160;4.146;2023-04-25T06:10:31;10.07;;;2.65;;
43345;SDS011;28937;51.160;4.146;2023-04-25T06:12:57;7.55;;;2.53;;
43345;SDS011;28937;51.160;4.146;2023-04-25T06:15:22;8.27;;;2.42;;
43345;SDS011;28937;51.160;4.146;2023-04-25T06:17:48;7.03;;;2.10;;
43345;SDS011;28937;51.160;4.146;2023-04-25T06:20:14;6.78;;;2.45;;
43345;SDS011;28937;51.160;4.146;2023-04-25T06:22:39;8.57;;;2.50;;
43345;SDS011;28937;51.160;4.146;2023-04-25T06:25:05;7.65;;;2.22;;
43345;SDS011;28937;51.160;4.146;2023-04-25T06:27:32;9.98;;;2.20;;
43345;SDS011;28937;51.160;4.146;2023-04-25T06:29:58;7.40;;;2.63;;
43345;SDS011;28937;51.160;4.146;2023-04-25T06:32:24;9.77;;;2.78;;
43345;SDS011;28937;51.160;4.146;2023-04-25T06:34:50;8.77;;;2.20;;
43345;SDS011;28937;51.160;4.146;2023-04-25T06:37:16;6.45;;;2.17;;
43345;SDS011;28937;51.160;4.146;2023-04-25T06:39:41;7.63;;;2.05;;
43345;SDS011;28937;51.160;4.146;2023-04-25T06:42:07;8.02;;;2.15;;
43345;SDS011;28937;51.160;4.146;2023-04-25T06:44:33;9.43;;;2.28;;
43345;SDS011;28937;51.160;4.146;2023-04-25T06:46:58;10.40;;;1.98;;
43345;SDS011;28937;51.160;4.146;2023-04-25T06:49:24;8.13;;;1.80;;
43345;SDS011;28937;51.160;4.146;2023-04-25T06:51:50;6.20;;;1.38;;
43345;SDS011;28937;51.160;4.146;2023-04-25T06:54:15;5.10;;;1.40;;
43345;SDS011;28937;51.160;4.146;2023-04-25T06:56:41;7.93;;;1.95;;
43345;SDS011;28937;51.160;4.146;2023-04-25T06:59:06;7.47;;;1.55;;
43345;SDS011;28937;51.160;4.146;2023-04-25T07:01:32;4.50;;;1.50;;
43345;SDS011;28937;51.160;4.146;2023-04-25T07:03:58;7.70;;;2.20;;
43345;SDS011;28937;51.160;4.146;2023-04-25T07:06:23;6.15;;;1.83;;
43345;SDS011;28937;51.160;4.146;2023-04-25T07:08:50;7.78;;;1.83;;
43345;SDS011;28937;51.160;4.146;2023-04-25T07:11:16;7.03;;;1.90;;
43345;SDS011;28937;51.160;4.146;2023-04-25T07:13:41;9.45;;;2.03;;
43345;SDS011;28937;51.160;4.146;2023-04-25T07:16:07;9.50;;;2.50;;
43345;SDS011;28937;51.160;4.146;2023-04-25T07:18:33;9.80;;;1.70;;
43345;SDS011;28937;51.160;4.146;2023-04-25T07:20:58;6.18;;;1.90;;
43345;SDS011;28937;51.160;4.146;2023-04-25T07:23:24;7.13;;;1.85;;
43345;SDS011;28937;51.160;4.146;2023-04-25T07:25:49;8.27;;;1.95;;
43345;SDS011;28937;51.160;4.146;2023-04-25T07:28:15;10.43;;;1.75;;
43345;SDS011;28937;51.160;4.146;2023-04-25T07:30:41;8.93;;;1.80;;
43345;SDS011;28937;51.160;4.146;2023-04-25T07:33:06;6.97;;;1.88;;
43345;SDS011;28937;51.160;4.146;2023-04-25T07:35:32;6.78;;;1.65;;
43345;SDS011;28937;51.160;4.146;2023-04-25T07:37:57;4.05;;;0.88;;
43345;SDS011;28937;51.160;4.146;2023-04-25T07:40:24;4.93;;;1.10;;
43345;SDS011;28937;51.160;4.146;2023-04-25T07:42:49;4.70;;;1.30;;
43345;SDS011;28937;51.160;4.146;2023-04-25T07:45:15;5.43;;;1.10;;
43345;SDS011;28937;51.160;4.146;2023-04-25T07:47:41;4.95;;;1.35;;
43345;SDS011;28937;51.160;4.146;2023-04-25T07:50:06;6.00;;;1.35;;
43345;SDS011;28937;51.160;4.146;2023-04-25T07:52:32;6.35;;;0.93;;
43345;SDS011;28937;51.160;4.146;2023-04-25T07:54:58;4.82;;;1.13;;
43345;SDS011;28937;51.160;4.146;2023-04-25T07:57:23;4.60;;;1.13;;
43345;SDS011;28937;51.160;4.146;2023-04-25T07:59:49;7.00;;;1.50;;
43345;SDS011;28937;51.160;4.146;2023-04-25T08:02:15;5.10;;;1.30;;
43345;SDS011;28937;51.160;4.146;2023-04-25T08:04:40;6.28;;;1.20;;
43345;SDS011;28937;51.160;4.146;2023-04-25T08:07:06;4.07;;;0.80;;
43345;SDS011;28937;51.160;4.146;2023-04-25T08:09:31;8.95;;;1.45;;
43345;SDS011;28937;51.160;4.146;2023-04-25T08:12:01;4.35;;;1.05;;
43345;SDS011;28937;51.160;4.146;2023-04-25T08:14:28;4.10;;;1.23;;
43345;SDS011;28937;51.160;4.146;2023-04-25T08:16:56;5.60;;;1.30;;
43345;SDS011;28937;51.160;4.146;2023-04-25T08:19:21;6.25;;;1.70;;
43345;SDS011;28937;51.160;4.146;2023-04-25T08:21:47;5.68;;;0.98;;
43345;SDS011;28937;51.160;4.146;2023-04-25T08:24:13;5.68;;;0.90;;
43345;SDS011;28937;51.160;4.146;2023-04-25T08:26:38;4.95;;;1.55;;
43345;SDS011;28937;51.160;4.146;2023-04-25T08:29:05;4.90;;;0.98;;
43345;SDS011;28937;51.160;4.146;2023-04-25T08:31:31;6.07;;;1.00;;
43345;SDS011;28937;51.160;4.146;2023-04-25T08:33:56;5.00;;;1.10;;
43345;SDS011;28937;51.160;4.146;2023-04-25T08:36:22;5.95;;;1.15;;
43345;SDS011;28937;51.160;4.146;2023-04-25T08:38:48;4.03;;;1.05;;
43345;SDS011;28937;51.160;4.146;2023-04-25T08:41:14;4.78;;;1.08;;
43345;SDS011;28937;51.160;4.146;2023-04-25T08:43:41;6.25;;;1.30;;
43345;SDS011;28937;51.160;4.146;2023-04-25T08:46:08;8.45;;;1.42;;
43345;SDS011;28937;51.160;4.146;2023-04-25T08:48:36;7.47;;;1.88;;
43345;SDS011;28937;51.160;4.146;2023-04-25T08:51:02;4.25;;;1.17;;
43345;SDS011;28937;51.160;4.146;2023-04-25T08:53:32;7.50;;;1.25;;
43345;SDS011;28937;51.160;4.146;2023-04-25T08:55:59;7.03;;;1.50;;
43345;SDS011;28937;51.160;4.146;2023-04-25T08:58:29;5.38;;;1.30;;
43345;SDS011;28937;51.160;4.146;2023-04-25T09:00:55;6.80;;;1.48;;
43345;SDS011;28937;51.160;4.146;2023-04-25T09:03:21;5.68;;;0.98;;
43345;SDS011;28937;51.160;4.146;2023-04-25T09:05:47;5.40;;;1.10;;
43345;SDS011;28937;51.160;4.146;2023-04-25T09:08:12;2.92;;;0.98;;
43345;SDS011;28937;51.160;4.146;2023-04-25T09:10:40;3.92;;;0.82;;
43345;SDS011;28937;51.160;4.146;2023-04-25T09:18:35;3.80;;;0.93;;
43345;SDS011;28937;51.160;4.146;2023-04-25T09:21:05;4.60;;;0.85;;
43345;SDS011;28937;51.160;4.146;2023-04-25T09:23:41;2.67;;;0.70;;
43345;SDS011;28937;51.160;4.146;2023-04-25T09:26:10;5.80;;;1.42;;
43345;SDS011;28937;51.160;4.146;2023-04-25T09:28:39;3.60;;;0.98;;
43345;SDS011;28937;51.160;4.146;2023-04-25T09:31:07;4.07;;;0.88;;
43345;SDS011;28937;51.160;4.146;2023-04-25T09:33:35;3.67;;;1.13;;
43345;SDS011;28937;51.160;4.146;2023-04-25T09:36:04;9.73;;;0.73;;
43345;SDS011;28937;51.160;4.146;2023-04-25T09:38:36;4.87;;;1.03;;
43345;SDS011;28937;51.160;4.146;2023-04-25T09:41:07;5.60;;;1.20;;
43345;SDS011;28937;51.160;4.146;2023-04-25T09:43:33;4.63;;;1.05;;
43345;SDS011;28937;51.160;4.146;2023-04-25T09:45:59;5.63;;;1.02;;
43345;SDS011;28937;51.160;4.146;2023-04-25T09:48:26;5.72;;;0.90;;
43345;SDS011;28937;51.160;4.146;2023-04-25T09:53:31;3.10;;;0.77;;
43345;SDS011;28937;51.160;4.146;2023-04-25T09:55:59;2.45;;;0.60;;
43345;SDS011;28937;51.160;4.146;2023-04-25T09:58:29;5.32;;;1.08;;
43345;SDS011;28937;51.160;4.146;2023-04-25T10:00:55;5.72;;;1.13;;
43345;SDS011;28937;51.160;4.146;2023-04-25T10:03:26;3.75;;;0.80;;
43345;SDS011;28937;51.160;4.146;2023-04-25T10:05:52;4.70;;;0.80;;
43345;SDS011;28937;51.160;4.146;2023-04-25T10:08:19;3.30;;;0.77;;
43345;SDS011;28937;51.160;4.146;2023-04-25T10:10:46;3.53;;;0.63;;
43345;SDS011;28937;51.160;4.146;2023-04-25T10:13:13;6.72;;;1.13;;
43345;SDS011;28937;51.160;4.146;2023-04-25T10:15:40;4.82;;;1.10;;
43345;SDS011;28937;51.160;4.146;2023-04-25T10:18:06;3.50;;;1.00;;
43345;SDS011;28937;51.160;4.146;2023-04-25T10:20:32;4.85;;;1.00;;
43345;SDS011;28937;51.160;4.146;2023-04-25T10:23:00;3.47;;;1.08;;
43345;SDS011;28937;51.160;4.146;2023-04-25T10:25:38;4.05;;;0.90;;
43345;SDS011;28937;51.160;4.146;2023-04-25T10:28:05;4.53;;;1.00;;
43345;SDS011;28937;51.160;4.146;2023-04-25T10:30:31;4.57;;;1.13;;
43345;SDS011;28937;51.160;4.146;2023-04-25T10:32:56;3.55;;;1.00;;
43345;SDS011;28937;51.160;4.146;2023-04-25T10:35:25;4.70;;;1.02;;
43345;SDS011;28937;51.160;4.146;2023-04-25T10:38:05;2.78;;;0.82;;
43345;SDS011;28937;51.160;4.146;2023-04-25T10:40:34;3.08;;;0.80;;
43345;SDS011;28937;51.160;4.146;2023-04-25T10:46:01;3.42;;;1.05;;
43345;SDS011;28937;51.160;4.146;2023-04-25T10:48:28;3.20;;;1.00;;
43345;SDS011;28937;51.160;4.146;2023-04-25T10:51:11;6.22;;;1.08;;
43345;SDS011;28937;51.160;4.146;2023-04-25T10:53:40;4.55;;;0.80;;
43345;SDS011;28937;51.160;4.146;2023-04-25T10:58:48;3.90;;;0.68;;
43345;SDS011;28937;51.160;4.146;2023-04-25T11:01:15;2.80;;;0.70;;
43345;SDS011;28937;51.160;4.146;2023-04-25T11:03:44;2.03;;;0.70;;
43345;SDS011;28937;51.160;4.146;2023-04-25T11:06:23;2.08;;;0.50;;
43345;SDS011;28937;51.160;4.146;2023-04-25T11:09:11;3.05;;;0.95;;
43345;SDS011;28937;51.160;4.146;2023-04-25T11:11:38;3.40;;;0.60;;
43345;SDS011;28937;51.160;4.146;2023-04-25T11:14:04;3.28;;;0.80;;
43345;SDS011;28937;51.160;4.146;2023-04-25T11:16:29;5.10;;;0.80;;
43345;SDS011;28937;51.160;4.146;2023-04-25T11:18:57;5.97;;;0.90;;
43345;SDS011;28937;51.160;4.146;2023-04-25T11:21:23;2.60;;;0.80;;
43345;SDS011;28937;51.160;4.146;2023-04-25T11:23:51;2.15;;;0.50;;
43345;SDS011;28937;51.160;4.146;2023-04-25T11:26:18;2.53;;;0.55;;
43345;SDS011;28937;51.160;4.146;2023-04-25T11:28:45;2.55;;;0.60;;
43345;SDS011;28937;51.160;4.146;2023-04-25T11:31:12;1.70;;;0.50;;
43345;SDS011;28937;51.160;4.146;2023-04-25T11:33:37;4.10;;;0.93;;
43345;SDS011;28937;51.160;4.146;2023-04-25T11:36:03;3.70;;;0.85;;
43345;SDS011;28937;51.160;4.146;2023-04-25T11:38:30;3.03;;;0.57;;
43345;SDS011;28937;51.160;4.146;2023-04-25T11:40:56;3.88;;;0.95;;
43345;SDS011;28937;51.160;4.146;2023-04-25T11:43:22;2.90;;;0.90;;
43345;SDS011;28937;51.160;4.146;2023-04-25T11:45:48;6.28;;;1.08;;
43345;SDS011;28937;51.160;4.146;2023-04-25T11:48:15;3.47;;;0.50;;
43345;SDS011;28937;51.160;4.146;2023-04-25T11:50:41;4.00;;;0.98;;
43345;SDS011;28937;51.160;4.146;2023-04-25T11:53:07;4.20;;;0.65;;
43345;SDS011;28937;51.160;4.146;2023-04-25T11:55:33;6.40;;;1.33;;
43345;SDS011;28937;51.160;4.146;2023-04-25T11:58:00;3.92;;;0.70;;
43345;SDS011;28937;51.160;4.146;2023-04-25T12:00:27;3.67;;;0.73;;
43345;SDS011;28937;51.160;4.146;2023-04-25T12:02:54;3.50;;;1.00;;
43345;SDS011;28937;51.160;4.146;2023-04-25T12:05:26;4.32;;;0.70;;
43345;SDS011;28937;51.160;4.146;2023-04-25T12:07:53;3.67;;;0.43;;
43345;SDS011;28937;51.160;4.146;2023-04-25T12:10:19;2.05;;;0.57;;
43345;SDS011;28937;51.160;4.146;2023-04-25T12:12:45;2.00;;;0.47;;
43345;SDS011;28937;51.160;4.146;2023-04-25T12:15:16;3.63;;;0.50;;
43345;SDS011;28937;51.160;4.146;2023-04-25T12:17:46;1.52;;;0.40;;
43345;SDS011;28937;51.160;4.146;2023-04-25T12:20:17;4.45;;;0.98;;
43345;SDS011;28937;51.160;4.146;2023-04-25T12:22:45;2.70;;;0.52;;
43345;SDS011;28937;51.160;4.146;2023-04-25T12:30:54;4.28;;;0.80;;
43345;SDS011;28937;51.160;4.146;2023-04-25T12:33:32;2.85;;;0.73;;
43345;SDS011;28937;51.160;4.146;2023-04-25T12:35:59;5.82;;;1.30;;
43345;SDS011;28937;51.160;4.146;2023-04-25T12:38:29;4.47;;;0.90;;
43345;SDS011;28937;51.160;4.146;2023-04-25T12:40:56;5.97;;;0.82;;
43345;SDS011;28937;51.160;4.146;2023-04-25T12:43:23;5.20;;;1.02;;
43345;SDS011;28937;51.160;4.146;2023-04-25T12:45:49;4.93;;;1.00;;
43345;SDS011;28937;51.160;4.146;2023-04-25T12:48:16;5.93;;;1.15;;
43345;SDS011;28937;51.160;4.146;2023-04-25T12:50:42;6.72;;;1.38;;
43345;SDS011;28937;51.160;4.146;2023-04-25T12:53:08;4.68;;;0.70;;
43345;SDS011;28937;51.160;4.146;2023-04-25T12:55:34;6.35;;;1.45;;
43345;SDS011;28937;51.160;4.146;2023-04-25T12:58:00;2.60;;;0.65;;
43345;SDS011;28937;51.160;4.146;2023-04-25T13:00:26;4.63;;;1.05;;
43345;SDS011;28937;51.160;4.146;2023-04-25T13:02:51;4.50;;;1.00;;
43345;SDS011;28937;51.160;4.146;2023-04-25T13:05:17;5.43;;;1.02;;
43345;SDS011;28937;51.160;4.146;2023-04-25T13:07:43;5.80;;;1.00;;
43345;SDS011;28937;51.160;4.146;2023-04-25T13:10:09;4.63;;;0.80;;
43345;SDS011;28937;51.160;4.146;2023-04-25T13:12:35;6.60;;;0.90;;
43345;SDS011;28937;51.160;4.146;2023-04-25T13:15:01;4.43;;;0.80;;
43345;SDS011;28937;51.160;4.146;2023-04-25T13:17:26;3.92;;;0.90;;
43345;SDS011;28937;51.160;4.146;2023-04-25T13:19:52;4.07;;;0.85;;
43345;SDS011;28937;51.160;4.146;2023-04-25T13:22:17;3.67;;;0.80;;
43345;SDS011;28937;51.160;4.146;2023-04-25T13:24:45;5.10;;;0.98;;
43345;SDS011;28937;51.160;4.146;2023-04-25T13:27:11;3.50;;;1.10;;
43345;SDS011;28937;51.160;4.146;2023-04-25T13:29:36;4.45;;;1.02;;
43345;SDS011;28937;51.160;4.146;2023-04-25T13:32:03;4.53;;;1.10;;
43345;SDS011;28937;51.160;4.146;2023-04-25T13:34:29;5.30;;;1.00;;
43345;SDS011;28937;51.160;4.146;2023-04-25T13:36:55;3.47;;;0.90;;
43345;SDS011;28937;51.160;4.146;2023-04-25T13:39:21;5.75;;;1.15;;
43345;SDS011;28937;51.160;4.146;2023-04-25T13:41:47;5.45;;;0.93;;
43345;SDS011;28937;51.160;4.146;2023-04-25T13:44:14;5.35;;;0.95;;
43345;SDS011;28937;51.160;4.146;2023-04-25T13:46:39;3.85;;;0.90;;
43345;SDS011;28937;51.160;4.146;2023-04-25T13:49:05;2.65;;;0.65;;
43345;SDS011;28937;51.160;4.146;2023-04-25T13:51:30;3.65;;;0.80;;
43345;SDS011;28937;51.160;4.146;2023-04-25T13:53:56;3.42;;;0.80;;
43345;SDS011;28937;51.160;4.146;2023-04-25T13:56:22;3.80;;;0.90;;
43345;SDS011;28937;51.160;4.146;2023-04-25T13:58:49;5.68;;;0.80;;
43345;SDS011;28937;51.160;4.146;2023-04-25T14:01:16;4.57;;;0.90;;
43345;SDS011;28937;51.160;4.146;2023-04-25T14:03:42;4.35;;;1.00;;
43345;SDS011;28937;51.160;4.146;2023-04-25T14:06:07;4.88;;;1.02;;
43345;SDS011;28937;51.160;4.146;2023-04-25T14:08:33;5.13;;;1.05;;
43345;SDS011;28937;51.160;4.146;2023-04-25T14:10:59;4.18;;;0.88;;
43345;SDS011;28937;51.160;4.146;2023-04-25T14:13:25;4.55;;;0.75;;
43345;SDS011;28937;51.160;4.146;2023-04-25T14:15:51;4.88;;;0.98;;
43345;SDS011;28937;51.160;4.146;2023-04-25T14:18:17;5.20;;;1.10;;
43345;SDS011;28937;51.160;4.146;2023-04-25T14:20:43;6.57;;;1.27;;
43345;SDS011;28937;51.160;4.146;2023-04-25T14:23:09;6.78;;;1.30;;
43345;SDS011;28937;51.160;4.146;2023-04-25T14:25:35;5.00;;;1.00;;
43345;SDS011;28937;51.160;4.146;2023-04-25T14:28:01;5.68;;;1.50;;
43345;SDS011;28937;51.160;4.146;2023-04-25T14:30:27;6.28;;;1.00;;
43345;SDS011;28937;51.160;4.146;2023-04-25T14:32:53;4.75;;;1.55;;
43345;SDS011;28937;51.160;4.146;2023-04-25T14:35:18;2.55;;;0.70;;
43345;SDS011;28937;51.160;4.146;2023-04-25T14:37:44;6.40;;;0.90;;
43345;SDS011;28937;51.160;4.146;2023-04-25T14:40:10;4.75;;;1.00;;
43345;SDS011;28937;51.160;4.146;2023-04-25T14:42:38;4.97;;;1.10;;
43345;SDS011;28937;51.160;4.146;2023-04-25T14:45:07;2.92;;;0.70;;
43345;SDS011;28937;51.160;4.146;2023-04-25T14:47:33;5.35;;;1.15;;
43345;SDS011;28937;51.160;4.146;2023-04-25T14:50:00;2.92;;;0.68;;
43345;SDS011;28937;51.160;4.146;2023-04-25T14:52:26;2.88;;;0.52;;
43345;SDS011;28937;51.160;4.146;2023-04-25T14:54:52;5.78;;;1.00;;
43345;SDS011;28937;51.160;4.146;2023-04-25T14:57:18;15.48;;;1.85;;
43345;SDS011;28937;51.160;4.146;2023-04-25T14:59:44;5.97;;;0.88;;